Colonia Tovar, Venezuela
Current Conditions -  °F | °C
As of 6:00 AM on Friday 24 Oct 2014 (Local Time) from SVMI Reporting Station
Clear Clear  
Wind Chill: 77°   Ceiling: Unl
Heat Index: 79°   Visibility: 6mi
Dew Point: 68°   Wind: 2mph
Humidity: 74%   Direction: 70°ENE
Pressure: 29.88"   Gusts: NA
Location:  10.38°N, 67.27°W
Report Text: SVMI 241000Z 07002KT CAVOK 25/20 Q1012 NOSIG
Loading
Personal Weather Stations






























Interactive Weather Map
Tropical Storm Tracking
New forecast layout! Learn more

10-Day Weather Forecast

Advertisements
Track Severe Weather on mobile